sensor_id;sensor_type;location;lat;lon;timestamp;P1;durP1;ratioP1;P2;durP2;ratioP2
69910;SDS011;63555;49.920;17.868;2023-07-20T00:03:28;8.60;;;3.87;;
69910;SDS011;63555;49.920;17.868;2023-07-20T00:08:29;7.77;;;3.97;;
69910;SDS011;63555;49.920;17.868;2023-07-20T00:13:30;8.98;;;3.67;;
69910;SDS011;63555;49.920;17.868;2023-07-20T00:18:30;10.00;;;4.47;;
69910;SDS011;63555;49.920;17.868;2023-07-20T00:23:30;10.20;;;4.20;;
69910;SDS011;63555;49.920;17.868;2023-07-20T00:28:31;18.10;;;4.33;;
69910;SDS011;63555;49.920;17.868;2023-07-20T00:33:31;9.23;;;4.20;;
69910;SDS011;63555;49.920;17.868;2023-07-20T00:38:32;13.07;;;4.10;;
69910;SDS011;63555;49.920;17.868;2023-07-20T00:43:33;9.40;;;4.53;;
69910;SDS011;63555;49.920;17.868;2023-07-20T00:48:33;9.17;;;4.30;;
69910;SDS011;63555;49.920;17.868;2023-07-20T00:53:34;8.43;;;3.53;;
69910;SDS011;63555;49.920;17.868;2023-07-20T00:58:34;7.73;;;4.20;;
69910;SDS011;63555;49.920;17.868;2023-07-20T01:03:35;11.50;;;3.80;;
69910;SDS011;63555;49.920;17.868;2023-07-20T01:08:38;8.00;;;4.70;;
69910;SDS011;63555;49.920;17.868;2023-07-20T01:13:44;11.77;;;4.68;;
69910;SDS011;63555;49.920;17.868;2023-07-20T01:18:45;14.30;;;5.05;;
69910;SDS011;63555;49.920;17.868;2023-07-20T01:23:57;7.00;;;3.83;;
69910;SDS011;63555;49.920;17.868;2023-07-20T01:29:31;9.57;;;4.35;;
69910;SDS011;63555;49.920;17.868;2023-07-20T01:40:51;5.45;;;3.05;;
69910;SDS011;63555;49.920;17.868;2023-07-20T01:45:52;6.30;;;3.08;;
69910;SDS011;63555;49.920;17.868;2023-07-20T01:50:53;6.88;;;3.40;;
69910;SDS011;63555;49.920;17.868;2023-07-20T01:55:53;6.30;;;2.83;;
69910;SDS011;63555;49.920;17.868;2023-07-20T02:00:56;6.60;;;2.83;;
69910;SDS011;63555;49.920;17.868;2023-07-20T02:05:56;5.73;;;3.00;;
69910;SDS011;63555;49.920;17.868;2023-07-20T02:10:57;5.77;;;2.83;;
69910;SDS011;63555;49.920;17.868;2023-07-20T02:15:57;5.37;;;2.53;;
69910;SDS011;63555;49.920;17.868;2023-07-20T02:20:58;5.73;;;2.93;;
69910;SDS011;63555;49.920;17.868;2023-07-20T02:25:59;7.18;;;2.92;;
69910;SDS011;63555;49.920;17.868;2023-07-20T02:30:59;6.27;;;3.37;;
69910;SDS011;63555;49.920;17.868;2023-07-20T02:36:00;11.63;;;3.30;;
69910;SDS011;63555;49.920;17.868;2023-07-20T02:41:00;7.17;;;3.13;;
69910;SDS011;63555;49.920;17.868;2023-07-20T03:28:53;13.13;;;4.82;;
69910;SDS011;63555;49.920;17.868;2023-07-20T03:39:50;15.18;;;4.03;;
69910;SDS011;63555;49.920;17.868;2023-07-20T03:44:50;7.57;;;3.40;;
69910;SDS011;63555;49.920;17.868;2023-07-20T03:49:51;8.13;;;3.43;;
69910;SDS011;63555;49.920;17.868;2023-07-20T03:54:51;7.43;;;3.00;;
69910;SDS011;63555;49.920;17.868;2023-07-20T03:59:51;7.80;;;3.30;;
69910;SDS011;63555;49.920;17.868;2023-07-20T04:04:52;7.20;;;2.87;;
69910;SDS011;63555;49.920;17.868;2023-07-20T04:09:52;10.53;;;3.93;;
69910;SDS011;63555;49.920;17.868;2023-07-20T04:14:52;7.70;;;3.67;;
69910;SDS011;63555;49.920;17.868;2023-07-20T04:19:53;11.07;;;3.70;;
69910;SDS011;63555;49.920;17.868;2023-07-20T04:24:53;12.93;;;3.60;;
69910;SDS011;63555;49.920;17.868;2023-07-20T04:29:54;15.73;;;4.00;;
69910;SDS011;63555;49.920;17.868;2023-07-20T04:34:54;11.03;;;3.30;;
69910;SDS011;63555;49.920;17.868;2023-07-20T04:39:54;8.52;;;2.50;;
69910;SDS011;63555;49.920;17.868;2023-07-20T04:44:55;11.40;;;3.83;;
69910;SDS011;63555;49.920;17.868;2023-07-20T04:49:55;8.93;;;3.10;;
69910;SDS011;63555;49.920;17.868;2023-07-20T04:54:55;11.53;;;3.87;;
69910;SDS011;63555;49.920;17.868;2023-07-20T04:59:57;6.68;;;2.25;;
69910;SDS011;63555;49.920;17.868;2023-07-20T05:04:57;6.33;;;2.20;;
69910;SDS011;63555;49.920;17.868;2023-07-20T05:09:57;4.40;;;2.27;;
69910;SDS011;63555;49.920;17.868;2023-07-20T05:14:58;5.40;;;1.87;;
69910;SDS011;63555;49.920;17.868;2023-07-20T05:19:58;4.17;;;1.50;;
69910;SDS011;63555;49.920;17.868;2023-07-20T05:24:58;3.43;;;1.20;;
69910;SDS011;63555;49.920;17.868;2023-07-20T05:29:59;4.07;;;1.23;;
69910;SDS011;63555;49.920;17.868;2023-07-20T05:34:59;3.87;;;1.13;;
69910;SDS011;63555;49.920;17.868;2023-07-20T05:40:00;3.50;;;1.13;;
69910;SDS011;63555;49.920;17.868;2023-07-20T05:45:00;2.40;;;1.10;;
69910;SDS011;63555;49.920;17.868;2023-07-20T05:50:00;2.87;;;1.20;;
69910;SDS011;63555;49.920;17.868;2023-07-20T05:55:01;2.73;;;1.00;;
69910;SDS011;63555;49.920;17.868;2023-07-20T06:00:01;2.70;;;1.10;;
69910;SDS011;63555;49.920;17.868;2023-07-20T06:05:03;2.35;;;0.90;;
69910;SDS011;63555;49.920;17.868;2023-07-20T06:10:04;3.70;;;1.43;;
69910;SDS011;63555;49.920;17.868;2023-07-20T06:15:23;2.70;;;1.05;;
69910;SDS011;63555;49.920;17.868;2023-07-20T06:20:25;4.00;;;0.80;;
69910;SDS011;63555;49.920;17.868;2023-07-20T06:25:26;2.60;;;1.10;;
69910;SDS011;63555;49.920;17.868;2023-07-20T06:30:26;4.90;;;1.10;;
69910;SDS011;63555;49.920;17.868;2023-07-20T06:35:27;2.43;;;0.90;;
69910;SDS011;63555;49.920;17.868;2023-07-20T06:40:27;3.00;;;1.07;;
69910;SDS011;63555;49.920;17.868;2023-07-20T06:45:27;2.77;;;0.97;;
69910;SDS011;63555;49.920;17.868;2023-07-20T06:50:28;5.37;;;1.30;;
69910;SDS011;63555;49.920;17.868;2023-07-20T06:55:28;2.53;;;0.90;;
69910;SDS011;63555;49.920;17.868;2023-07-20T07:00:28;4.77;;;1.20;;
69910;SDS011;63555;49.920;17.868;2023-07-20T07:05:29;3.13;;;1.00;;
69910;SDS011;63555;49.920;17.868;2023-07-20T07:10:29;2.40;;;1.10;;
69910;SDS011;63555;49.920;17.868;2023-07-20T07:15:30;3.73;;;1.40;;
69910;SDS011;63555;49.920;17.868;2023-07-20T07:20:30;2.73;;;1.20;;
69910;SDS011;63555;49.920;17.868;2023-07-20T07:25:30;3.97;;;1.40;;
69910;SDS011;63555;49.920;17.868;2023-07-20T07:30:32;4.73;;;1.30;;
69910;SDS011;63555;49.920;17.868;2023-07-20T07:35:32;3.27;;;1.30;;
69910;SDS011;63555;49.920;17.868;2023-07-20T07:40:33;3.13;;;1.60;;
69910;SDS011;63555;49.920;17.868;2023-07-20T07:45:34;2.90;;;1.50;;
69910;SDS011;63555;49.920;17.868;2023-07-20T07:50:36;3.38;;;1.60;;
69910;SDS011;63555;49.920;17.868;2023-07-20T07:55:37;3.77;;;1.77;;
69910;SDS011;63555;49.920;17.868;2023-07-20T08:00:37;3.83;;;1.77;;
69910;SDS011;63555;49.920;17.868;2023-07-20T08:05:38;4.37;;;2.00;;
69910;SDS011;63555;49.920;17.868;2023-07-20T08:10:38;4.53;;;1.90;;
69910;SDS011;63555;49.920;17.868;2023-07-20T08:15:38;4.97;;;2.03;;
69910;SDS011;63555;49.920;17.868;2023-07-20T08:20:39;3.55;;;1.90;;
69910;SDS011;63555;49.920;17.868;2023-07-20T08:25:39;3.57;;;1.77;;
69910;SDS011;63555;49.920;17.868;2023-07-20T08:30:44;5.07;;;2.30;;
69910;SDS011;63555;49.920;17.868;2023-07-20T08:35:46;3.50;;;2.35;;
69910;SDS011;63555;49.920;17.868;2023-07-20T08:40:47;3.80;;;1.92;;
69910;SDS011;63555;49.920;17.868;2023-07-20T08:45:47;3.17;;;1.60;;
69910;SDS011;63555;49.920;17.868;2023-07-20T08:50:49;3.85;;;1.80;;
69910;SDS011;63555;49.920;17.868;2023-07-20T08:55:51;3.90;;;2.10;;
69910;SDS011;63555;49.920;17.868;2023-07-20T09:00:55;3.75;;;1.70;;
69910;SDS011;63555;49.920;17.868;2023-07-20T09:05:55;3.83;;;1.80;;
69910;SDS011;63555;49.920;17.868;2023-07-20T09:10:56;3.70;;;1.80;;
69910;SDS011;63555;49.920;17.868;2023-07-20T09:15:56;4.43;;;1.70;;
69910;SDS011;63555;49.920;17.868;2023-07-20T09:20:58;4.30;;;1.52;;
69910;SDS011;63555;49.920;17.868;2023-07-20T09:26:19;3.30;;;1.60;;
69910;SDS011;63555;49.920;17.868;2023-07-20T09:31:20;2.80;;;1.52;;
69910;SDS011;63555;49.920;17.868;2023-07-20T09:36:21;5.72;;;1.67;;
69910;SDS011;63555;49.920;17.868;2023-07-20T09:41:22;2.40;;;1.20;;
69910;SDS011;63555;49.920;17.868;2023-07-20T09:46:22;3.47;;;1.50;;
69910;SDS011;63555;49.920;17.868;2023-07-20T09:51:23;3.10;;;1.20;;
69910;SDS011;63555;49.920;17.868;2023-07-20T09:56:24;4.65;;;1.63;;
69910;SDS011;63555;49.920;17.868;2023-07-20T10:01:26;3.93;;;1.60;;
69910;SDS011;63555;49.920;17.868;2023-07-20T10:06:29;3.45;;;1.70;;
69910;SDS011;63555;49.920;17.868;2023-07-20T10:11:34;3.00;;;1.43;;
69910;SDS011;63555;49.920;17.868;2023-07-20T10:16:39;4.18;;;1.90;;
69910;SDS011;63555;49.920;17.868;2023-07-20T10:21:48;3.25;;;2.05;;
69910;SDS011;63555;49.920;17.868;2023-07-20T10:26:57;4.13;;;2.03;;
69910;SDS011;63555;49.920;17.868;2023-07-20T10:31:58;2.80;;;1.80;;
69910;SDS011;63555;49.920;17.868;2023-07-20T10:36:58;3.67;;;1.93;;
69910;SDS011;63555;49.920;17.868;2023-07-20T10:42:02;3.47;;;1.90;;
69910;SDS011;63555;49.920;17.868;2023-07-20T10:47:10;4.35;;;1.73;;
69910;SDS011;63555;49.920;17.868;2023-07-20T10:52:12;3.10;;;1.60;;
69910;SDS011;63555;49.920;17.868;2023-07-20T10:57:22;4.33;;;1.90;;
69910;SDS011;63555;49.920;17.868;2023-07-20T11:02:24;6.40;;;1.93;;
69910;SDS011;63555;49.920;17.868;2023-07-20T11:07:37;5.23;;;1.97;;
69910;SDS011;63555;49.920;17.868;2023-07-20T11:12:41;3.03;;;1.90;;
69910;SDS011;63555;49.920;17.868;2023-07-20T11:17:41;3.23;;;1.30;;
69910;SDS011;63555;49.920;17.868;2023-07-20T11:22:42;3.23;;;1.50;;
69910;SDS011;63555;49.920;17.868;2023-07-20T11:27:44;3.63;;;1.60;;
69910;SDS011;63555;49.920;17.868;2023-07-20T11:32:49;4.00;;;2.07;;
69910;SDS011;63555;49.920;17.868;2023-07-20T11:37:49;2.70;;;1.60;;
69910;SDS011;63555;49.920;17.868;2023-07-20T11:42:50;3.33;;;2.20;;
69910;SDS011;63555;49.920;17.868;2023-07-20T11:47:50;4.20;;;2.40;;
69910;SDS011;63555;49.920;17.868;2023-07-20T11:52:50;3.57;;;2.27;;
69910;SDS011;63555;49.920;17.868;2023-07-20T11:58:01;4.43;;;2.10;;
69910;SDS011;63555;49.920;17.868;2023-07-20T12:03:05;4.78;;;2.00;;
69910;SDS011;63555;49.920;17.868;2023-07-20T12:08:10;3.80;;;2.20;;
69910;SDS011;63555;49.920;17.868;2023-07-20T12:13:10;5.23;;;1.73;;
69910;SDS011;63555;49.920;17.868;2023-07-20T12:18:11;4.90;;;1.70;;
69910;SDS011;63555;49.920;17.868;2023-07-20T12:23:12;4.63;;;1.90;;
69910;SDS011;63555;49.920;17.868;2023-07-20T12:28:14;3.53;;;1.70;;
69910;SDS011;63555;49.920;17.868;2023-07-20T12:33:16;2.75;;;1.50;;
69910;SDS011;63555;49.920;17.868;2023-07-20T12:38:17;5.20;;;1.60;;
69910;SDS011;63555;49.920;17.868;2023-07-20T12:43:17;3.00;;;1.50;;
69910;SDS011;63555;49.920;17.868;2023-07-20T12:48:18;2.80;;;1.40;;
69910;SDS011;63555;49.920;17.868;2023-07-20T12:53:18;4.27;;;1.53;;
69910;SDS011;63555;49.920;17.868;2023-07-20T12:58:18;3.97;;;1.30;;
69910;SDS011;63555;49.920;17.868;2023-07-20T13:03:19;5.40;;;1.60;;
69910;SDS011;63555;49.920;17.868;2023-07-20T13:08:19;3.00;;;1.20;;
69910;SDS011;63555;49.920;17.868;2023-07-20T13:13:20;2.72;;;1.10;;
69910;SDS011;63555;49.920;17.868;2023-07-20T13:18:20;5.68;;;1.30;;
69910;SDS011;63555;49.920;17.868;2023-07-20T13:23:21;3.57;;;1.37;;
69910;SDS011;63555;49.920;17.868;2023-07-20T13:28:21;3.73;;;1.20;;
69910;SDS011;63555;49.920;17.868;2023-07-20T13:33:22;3.37;;;1.37;;
69910;SDS011;63555;49.920;17.868;2023-07-20T13:38:22;5.23;;;1.30;;
69910;SDS011;63555;49.920;17.868;2023-07-20T13:43:22;4.70;;;1.50;;
69910;SDS011;63555;49.920;17.868;2023-07-20T13:48:23;4.93;;;1.40;;
69910;SDS011;63555;49.920;17.868;2023-07-20T13:53:23;3.53;;;1.40;;
69910;SDS011;63555;49.920;17.868;2023-07-20T13:58:24;2.67;;;1.60;;
69910;SDS011;63555;49.920;17.868;2023-07-20T14:03:25;2.45;;;1.20;;
69910;SDS011;63555;49.920;17.868;2023-07-20T14:08:25;2.40;;;1.10;;
69910;SDS011;63555;49.920;17.868;2023-07-20T14:13:25;3.90;;;1.30;;
69910;SDS011;63555;49.920;17.868;2023-07-20T14:18:27;3.37;;;1.80;;
69910;SDS011;63555;49.920;17.868;2023-07-20T14:23:28;3.80;;;1.13;;
69910;SDS011;63555;49.920;17.868;2023-07-20T14:28:28;3.22;;;1.30;;
69910;SDS011;63555;49.920;17.868;2023-07-20T14:33:29;2.47;;;1.17;;
69910;SDS011;63555;49.920;17.868;2023-07-20T14:38:30;2.83;;;1.40;;
69910;SDS011;63555;49.920;17.868;2023-07-20T14:43:31;3.93;;;1.20;;
69910;SDS011;63555;49.920;17.868;2023-07-20T14:48:32;4.30;;;1.20;;
69910;SDS011;63555;49.920;17.868;2023-07-20T14:53:32;5.33;;;1.33;;
69910;SDS011;63555;49.920;17.868;2023-07-20T14:58:33;2.38;;;1.05;;
69910;SDS011;63555;49.920;17.868;2023-07-20T15:03:33;2.77;;;0.90;;
69910;SDS011;63555;49.920;17.868;2023-07-20T15:08:33;2.27;;;0.87;;
69910;SDS011;63555;49.920;17.868;2023-07-20T15:13:34;2.30;;;1.03;;
69910;SDS011;63555;49.920;17.868;2023-07-20T15:18:34;3.57;;;1.40;;
69910;SDS011;63555;49.920;17.868;2023-07-20T15:23:34;4.00;;;1.10;;
69910;SDS011;63555;49.920;17.868;2023-07-20T15:28:35;2.20;;;1.20;;
69910;SDS011;63555;49.920;17.868;2023-07-20T15:33:35;2.27;;;1.10;;
69910;SDS011;63555;49.920;17.868;2023-07-20T15:38:36;3.10;;;0.87;;
69910;SDS011;63555;49.920;17.868;2023-07-20T15:43:36;2.27;;;1.17;;
69910;SDS011;63555;49.920;17.868;2023-07-20T15:48:36;1.87;;;0.73;;
69910;SDS011;63555;49.920;17.868;2023-07-20T15:53:37;1.90;;;0.67;;
69910;SDS011;63555;49.920;17.868;2023-07-20T15:58:38;3.07;;;0.90;;
69910;SDS011;63555;49.920;17.868;2023-07-20T16:03:38;3.40;;;0.70;;
69910;SDS011;63555;49.920;17.868;2023-07-20T16:08:38;2.03;;;0.90;;
69910;SDS011;63555;49.920;17.868;2023-07-20T16:13:39;2.67;;;0.73;;
69910;SDS011;63555;49.920;17.868;2023-07-20T16:18:39;3.43;;;0.67;;
69910;SDS011;63555;49.920;17.868;2023-07-20T16:23:39;2.43;;;0.80;;
69910;SDS011;63555;49.920;17.868;2023-07-20T16:28:40;2.53;;;1.05;;
69910;SDS011;63555;49.920;17.868;2023-07-20T16:33:41;2.27;;;0.63;;
69910;SDS011;63555;49.920;17.868;2023-07-20T16:38:44;4.18;;;0.80;;
69910;SDS011;63555;49.920;17.868;2023-07-20T16:43:44;2.40;;;0.80;;
69910;SDS011;63555;49.920;17.868;2023-07-20T16:48:44;2.10;;;0.80;;
69910;SDS011;63555;49.920;17.868;2023-07-20T16:53:45;2.90;;;0.70;;
69910;SDS011;63555;49.920;17.868;2023-07-20T16:58:45;3.17;;;0.83;;
69910;SDS011;63555;49.920;17.868;2023-07-20T17:03:46;2.65;;;0.70;;
69910;SDS011;63555;49.920;17.868;2023-07-20T17:08:48;1.93;;;0.70;;
69910;SDS011;63555;49.920;17.868;2023-07-20T17:13:48;2.53;;;0.97;;
69910;SDS011;63555;49.920;17.868;2023-07-20T17:18:49;2.17;;;1.00;;
69910;SDS011;63555;49.920;17.868;2023-07-20T17:23:49;1.80;;;0.70;;
69910;SDS011;63555;49.920;17.868;2023-07-20T17:28:50;5.50;;;0.80;;
69910;SDS011;63555;49.920;17.868;2023-07-20T17:33:50;3.50;;;1.20;;
69910;SDS011;63555;49.920;17.868;2023-07-20T17:38:50;2.97;;;1.10;;
69910;SDS011;63555;49.920;17.868;2023-07-20T17:43:51;5.17;;;1.13;;
69910;SDS011;63555;49.920;17.868;2023-07-20T17:48:51;2.60;;;1.00;;
69910;SDS011;63555;49.920;17.868;2023-07-20T17:53:52;4.67;;;1.00;;
69910;SDS011;63555;49.920;17.868;2023-07-20T17:58:52;5.00;;;1.00;;
69910;SDS011;63555;49.920;17.868;2023-07-20T18:03:52;2.72;;;1.00;;
69910;SDS011;63555;49.920;17.868;2023-07-20T18:08:53;2.93;;;1.27;;
69910;SDS011;63555;49.920;17.868;2023-07-20T18:13:53;3.67;;;1.20;;
69910;SDS011;63555;49.920;17.868;2023-07-20T18:18:54;2.40;;;0.95;;
69910;SDS011;63555;49.920;17.868;2023-07-20T18:23:55;3.30;;;1.20;;
69910;SDS011;63555;49.920;17.868;2023-07-20T18:28:55;2.57;;;1.10;;
69910;SDS011;63555;49.920;17.868;2023-07-20T18:33:55;3.20;;;1.00;;
69910;SDS011;63555;49.920;17.868;2023-07-20T18:38:57;4.20;;;1.30;;
69910;SDS011;63555;49.920;17.868;2023-07-20T18:43:58;3.17;;;1.35;;
69910;SDS011;63555;49.920;17.868;2023-07-20T18:48:58;3.07;;;1.50;;
69910;SDS011;63555;49.920;17.868;2023-07-20T18:53:59;3.57;;;1.37;;
69910;SDS011;63555;49.920;17.868;2023-07-20T18:58:59;2.70;;;1.40;;
69910;SDS011;63555;49.920;17.868;2023-07-20T19:04:00;5.70;;;1.37;;
69910;SDS011;63555;49.920;17.868;2023-07-20T19:09:01;3.15;;;1.55;;
69910;SDS011;63555;49.920;17.868;2023-07-20T19:14:02;3.57;;;1.60;;
69910;SDS011;63555;49.920;17.868;2023-07-20T19:19:02;6.37;;;1.57;;
69910;SDS011;63555;49.920;17.868;2023-07-20T19:24:03;4.38;;;1.60;;
69910;SDS011;63555;49.920;17.868;2023-07-20T19:29:04;4.80;;;2.00;;
69910;SDS011;63555;49.920;17.868;2023-07-20T19:34:05;3.97;;;2.10;;
69910;SDS011;63555;49.920;17.868;2023-07-20T19:39:05;4.00;;;2.00;;
69910;SDS011;63555;49.920;17.868;2023-07-20T19:44:05;3.60;;;1.97;;
69910;SDS011;63555;49.920;17.868;2023-07-20T19:49:09;6.00;;;2.15;;
69910;SDS011;63555;49.920;17.868;2023-07-20T19:54:09;4.37;;;1.93;;
69910;SDS011;63555;49.920;17.868;2023-07-20T19:59:10;4.10;;;1.83;;
69910;SDS011;63555;49.920;17.868;2023-07-20T20:04:12;4.30;;;2.17;;
69910;SDS011;63555;49.920;17.868;2023-07-20T20:09:13;3.90;;;1.80;;
69910;SDS011;63555;49.920;17.868;2023-07-20T20:14:13;4.27;;;1.80;;
69910;SDS011;63555;49.920;17.868;2023-07-20T20:19:13;4.43;;;1.93;;
69910;SDS011;63555;49.920;17.868;2023-07-20T20:24:14;3.87;;;2.07;;
69910;SDS011;63555;49.920;17.868;2023-07-20T20:29:14;3.83;;;2.13;;
69910;SDS011;63555;49.920;17.868;2023-07-20T20:34:14;3.30;;;1.83;;
69910;SDS011;63555;49.920;17.868;2023-07-20T20:39:15;3.53;;;2.20;;
69910;SDS011;63555;49.920;17.868;2023-07-20T20:44:16;4.17;;;2.00;;
69910;SDS011;63555;49.920;17.868;2023-07-20T20:49:26;4.77;;;2.20;;
69910;SDS011;63555;49.920;17.868;2023-07-20T20:54:28;3.30;;;2.15;;
69910;SDS011;63555;49.920;17.868;2023-07-20T20:59:28;3.90;;;2.10;;
69910;SDS011;63555;49.920;17.868;2023-07-20T21:04:28;3.53;;;2.00;;
69910;SDS011;63555;49.920;17.868;2023-07-20T21:09:29;3.73;;;2.23;;
69910;SDS011;63555;49.920;17.868;2023-07-20T21:14:29;5.87;;;2.50;;
69910;SDS011;63555;49.920;17.868;2023-07-20T21:19:29;4.10;;;2.30;;
69910;SDS011;63555;49.920;17.868;2023-07-20T21:24:30;4.67;;;2.40;;
69910;SDS011;63555;49.920;17.868;2023-07-20T21:29:30;4.53;;;2.50;;
69910;SDS011;63555;49.920;17.868;2023-07-20T21:34:30;3.97;;;2.30;;
69910;SDS011;63555;49.920;17.868;2023-07-20T21:39:31;4.70;;;2.23;;
69910;SDS011;63555;49.920;17.868;2023-07-20T21:44:31;5.70;;;2.50;;
69910;SDS011;63555;49.920;17.868;2023-07-20T21:49:32;5.27;;;2.40;;
69910;SDS011;63555;49.920;17.868;2023-07-20T21:54:32;4.60;;;2.40;;
69910;SDS011;63555;49.920;17.868;2023-07-20T21:59:33;5.88;;;2.38;;
69910;SDS011;63555;49.920;17.868;2023-07-20T22:04:33;7.13;;;2.50;;
69910;SDS011;63555;49.920;17.868;2023-07-20T22:09:34;5.82;;;2.60;;
69910;SDS011;63555;49.920;17.868;2023-07-20T22:14:34;9.87;;;2.63;;
69910;SDS011;63555;49.920;17.868;2023-07-20T22:19:35;4.30;;;2.43;;
69910;SDS011;63555;49.920;17.868;2023-07-20T22:24:36;4.13;;;2.77;;
69910;SDS011;63555;49.920;17.868;2023-07-20T22:29:36;6.03;;;2.70;;
69910;SDS011;63555;49.920;17.868;2023-07-20T22:34:37;4.43;;;2.45;;
69910;SDS011;63555;49.920;17.868;2023-07-20T22:39:38;4.38;;;2.30;;
69910;SDS011;63555;49.920;17.868;2023-07-20T22:44:38;4.40;;;2.73;;
69910;SDS011;63555;49.920;17.868;2023-07-20T22:49:39;3.80;;;2.23;;
69910;SDS011;63555;49.920;17.868;2023-07-20T22:54:40;3.67;;;2.33;;
69910;SDS011;63555;49.920;17.868;2023-07-20T22:59:40;4.43;;;2.67;;
69910;SDS011;63555;49.920;17.868;2023-07-20T23:04:41;5.93;;;2.30;;
69910;SDS011;63555;49.920;17.868;2023-07-20T23:09:41;4.40;;;2.37;;
69910;SDS011;63555;49.920;17.868;2023-07-20T23:14:43;5.60;;;2.70;;
69910;SDS011;63555;49.920;17.868;2023-07-20T23:19:44;4.63;;;2.80;;
69910;SDS011;63555;49.920;17.868;2023-07-20T23:24:44;4.10;;;2.42;;
69910;SDS011;63555;49.920;17.868;2023-07-20T23:29:45;4.00;;;2.50;;
69910;SDS011;63555;49.920;17.868;2023-07-20T23:34:45;4.80;;;2.63;;
69910;SDS011;63555;49.920;17.868;2023-07-20T23:39:46;4.50;;;2.30;;
69910;SDS011;63555;49.920;17.868;2023-07-20T23:44:46;3.97;;;2.33;;
69910;SDS011;63555;49.920;17.868;2023-07-20T23:49:47;4.93;;;2.90;;
69910;SDS011;63555;49.920;17.868;2023-07-20T23:54:48;4.53;;;2.90;;
69910;SDS011;63555;49.920;17.868;2023-07-20T23:59:48;7.10;;;3.13;;
